createdAt,value
2018-05-05T00:00:27.590Z,93.70
2018-05-05T00:02:53.803Z,93.90
2018-05-05T00:05:20.031Z,94.30
2018-05-05T00:07:46.238Z,94.90
2018-05-05T00:10:12.458Z,95.20
2018-05-05T00:12:38.678Z,95.60
2018-05-05T00:15:04.907Z,96.00
2018-05-05T00:17:31.106Z,96.00
2018-05-05T00:19:57.326Z,96.30
2018-05-05T00:22:25.035Z,96.40
2018-05-05T00:24:51.323Z,96.30
2018-05-05T00:27:17.521Z,96.50
2018-05-05T00:29:43.722Z,96.80
2018-05-05T00:32:09.951Z,97.10
2018-05-05T00:34:36.185Z,97.50
2018-05-05T00:37:02.390Z,97.70
2018-05-05T00:39:29.357Z,98.40
2018-05-05T00:41:55.560Z,98.40
2018-05-05T00:44:22.530Z,99.00
2018-05-05T00:46:48.726Z,99.00
2018-05-05T00:49:14.946Z,99.20
2018-05-05T00:51:41.155Z,99.50
2018-05-05T00:54:19.820Z,99.90
2018-05-05T00:56:46.048Z,99.90
2018-05-05T00:59:13.019Z,99.90
2018-05-05T01:01:39.235Z,99.90
2018-05-05T01:04:05.926Z,99.90
2018-05-05T01:06:32.870Z,99.90
2018-05-05T01:08:59.910Z,99.90
2018-05-05T01:11:26.864Z,99.90
2018-05-05T01:13:53.187Z,99.90
2018-05-05T01:16:19.870Z,99.90
2018-05-05T01:18:46.875Z,99.90
2018-05-05T01:21:13.091Z,99.90
2018-05-05T01:23:39.314Z,99.90
2018-05-05T01:26:05.510Z,99.90
2018-05-05T01:28:32.493Z,99.90
2018-05-05T01:30:58.719Z,99.90
2018-05-05T01:33:24.939Z,99.90
2018-05-05T01:35:51.143Z,99.90
2018-05-05T01:38:18.115Z,99.90
2018-05-05T01:40:44.339Z,99.90
2018-05-05T01:43:10.591Z,99.90
2018-05-05T01:45:36.998Z,99.90
2018-05-05T01:48:03.238Z,99.90
2018-05-05T01:50:29.437Z,99.90
2018-05-05T01:52:56.407Z,99.90
2018-05-05T01:55:22.599Z,99.90
2018-05-05T01:57:49.542Z,99.90
2018-05-05T02:00:15.772Z,99.90
2018-05-05T02:02:42.719Z,99.90
2018-05-05T02:05:08.952Z,99.90
2018-05-05T02:07:36.152Z,99.90
2018-05-05T02:10:02.471Z,99.90
2018-05-05T02:12:28.675Z,99.90
2018-05-05T02:14:55.651Z,99.90
2018-05-05T02:17:21.870Z,99.90
2018-05-05T02:19:48.060Z,99.90
2018-05-05T02:22:14.259Z,99.90
2018-05-05T02:24:40.466Z,99.90
2018-05-05T02:27:06.666Z,99.90
2018-05-05T02:29:33.632Z,99.90
2018-05-05T02:31:59.829Z,99.90
2018-05-05T02:34:26.850Z,99.90
2018-05-05T02:36:53.041Z,99.90
2018-05-05T02:39:19.259Z,99.90
2018-05-05T02:41:45.451Z,99.90
2018-05-05T02:44:11.673Z,99.90
2018-05-05T02:46:39.347Z,99.90
2018-05-05T02:49:05.571Z,99.90
2018-05-05T02:51:31.767Z,99.90
2018-05-05T02:53:57.988Z,99.90
2018-05-05T02:56:24.186Z,99.90
2018-05-05T02:58:51.151Z,99.90
2018-05-05T03:01:17.347Z,99.90
2018-05-05T03:03:44.563Z,99.90
2018-05-05T03:06:10.754Z,99.90
2018-05-05T03:08:36.952Z,99.90
2018-05-05T03:11:03.911Z,99.90
2018-05-05T03:13:30.158Z,99.90
2018-05-05T03:15:56.367Z,99.90
2018-05-05T03:18:23.305Z,99.90
2018-05-05T03:20:50.255Z,99.90
2018-05-05T03:23:17.207Z,99.90
2018-05-05T03:25:44.171Z,99.90
2018-05-05T03:28:10.374Z,99.90
2018-05-05T03:30:37.355Z,99.90
2018-05-05T03:33:03.547Z,99.90
2018-05-05T03:35:30.515Z,99.90
2018-05-05T03:37:56.706Z,99.90
2018-05-05T03:40:22.923Z,99.90
2018-05-05T03:42:49.130Z,99.90
2018-05-05T03:45:15.346Z,99.90
2018-05-05T03:47:42.359Z,99.90
2018-05-05T03:50:09.479Z,99.90
2018-05-05T03:52:35.707Z,99.90
2018-05-05T03:55:01.898Z,99.90
2018-05-05T03:57:28.145Z,99.90
2018-05-05T04:00:06.988Z,99.90
2018-05-05T04:02:45.671Z,99.90
2018-05-05T04:08:21.640Z,99.90
2018-05-05T04:10:47.870Z,99.90
2018-05-05T04:13:14.097Z,99.90
2018-05-05T04:15:40.292Z,99.90
2018-05-05T04:18:06.526Z,99.90
2018-05-05T04:20:32.731Z,99.90
2018-05-05T04:22:59.399Z,99.90
2018-05-05T04:25:26.338Z,99.90
2018-05-05T04:27:52.751Z,99.90
2018-05-05T04:30:18.963Z,99.90
2018-05-05T04:32:45.167Z,99.90
2018-05-05T04:35:11.723Z,99.90
2018-05-05T04:37:37.927Z,99.90
2018-05-05T04:40:04.156Z,99.90
2018-05-05T04:42:30.366Z,99.90
2018-05-05T04:44:57.348Z,99.90
2018-05-05T04:47:23.542Z,99.90
2018-05-05T04:49:50.507Z,99.90
2018-05-05T04:52:16.706Z,99.90
2018-05-05T04:54:44.411Z,99.90
2018-05-05T04:57:10.616Z,99.90
2018-05-05T04:59:36.891Z,99.90
2018-05-05T05:02:03.104Z,99.90
2018-05-05T05:04:29.326Z,99.90
2018-05-05T05:06:55.527Z,99.90
2018-05-05T05:09:22.511Z,99.90
2018-05-05T05:11:48.719Z,99.90
2018-05-05T05:14:14.963Z,99.90
2018-05-05T05:16:41.235Z,99.90
2018-05-05T05:19:07.523Z,99.90
2018-05-05T05:21:33.707Z,99.90
2018-05-05T05:23:59.899Z,99.90
2018-05-05T05:26:26.116Z,99.90
2018-05-05T05:28:52.364Z,99.90
2018-05-05T05:31:18.538Z,99.90
2018-05-05T05:33:45.672Z,99.90
2018-05-05T05:36:11.883Z,99.90
2018-05-05T05:38:38.099Z,99.90
2018-05-05T05:41:04.322Z,99.90
2018-05-05T05:43:30.516Z,99.90
2018-05-05T05:45:56.735Z,99.90
2018-05-05T05:48:23.671Z,99.90
2018-05-05T05:50:50.627Z,99.90
2018-05-05T05:53:17.559Z,99.90
2018-05-05T05:55:44.522Z,99.90
2018-05-05T05:58:10.727Z,99.90
2018-05-05T06:00:36.948Z,99.90
2018-05-05T06:03:03.138Z,99.90
2018-05-05T06:05:29.355Z,99.90
2018-05-05T06:07:55.548Z,99.90
2018-05-05T06:10:22.818Z,99.90
2018-05-05T06:12:49.043Z,99.90
2018-05-05T06:15:15.975Z,99.90
2018-05-05T06:17:42.934Z,99.90
2018-05-05T06:20:10.228Z,99.90
2018-05-05T06:22:36.447Z,99.90
2018-05-05T06:25:02.667Z,99.90
2018-05-05T06:27:28.888Z,99.90
2018-05-05T06:29:55.074Z,99.90
2018-05-05T06:32:21.290Z,99.70
2018-05-05T06:34:47.487Z,99.10
2018-05-05T06:37:13.802Z,97.30
2018-05-05T06:39:39.935Z,97.20
2018-05-05T06:42:06.146Z,96.30
2018-05-05T06:44:33.088Z,95.00
2018-05-05T06:47:00.063Z,95.20
2018-05-05T06:49:34.195Z,95.20
2018-05-05T06:52:00.478Z,93.80
2018-05-05T06:54:27.409Z,94.20
2018-05-05T06:56:54.420Z,94.00
2018-05-05T06:59:20.606Z,93.90
2018-05-05T07:01:47.668Z,93.70
2018-05-05T07:04:13.891Z,93.60
2018-05-05T07:06:40.127Z,92.80
2018-05-05T07:09:06.751Z,92.50
2018-05-05T07:11:33.011Z,92.10
2018-05-05T07:13:59.286Z,91.70
2018-05-05T07:16:25.475Z,91.20
2018-05-05T07:18:51.698Z,90.00
2018-05-05T07:21:17.887Z,88.70
2018-05-05T07:23:45.183Z,84.70
2018-05-05T07:26:11.390Z,84.40
2018-05-05T07:28:44.575Z,84.30
2018-05-05T07:31:11.522Z,80.10
2018-05-05T07:33:38.487Z,79.40
2018-05-05T07:36:04.683Z,79.30
2018-05-05T07:38:31.643Z,75.30
2018-05-05T07:40:58.575Z,71.80
2018-05-05T07:43:25.530Z,73.70
2018-05-05T07:45:52.490Z,72.40
2018-05-05T07:48:18.797Z,72.40
2018-05-05T07:50:45.046Z,71.40
2018-05-05T07:53:11.262Z,68.70
2018-05-05T07:55:38.214Z,71.60
2018-05-05T07:58:05.150Z,68.50
2018-05-05T08:00:32.111Z,69.30
2018-05-05T08:02:58.334Z,69.30
2018-05-05T08:05:25.289Z,69.50
2018-05-05T08:07:51.483Z,69.60
2018-05-05T08:10:17.703Z,68.40
2018-05-05T08:12:43.898Z,67.20
2018-05-05T08:15:10.144Z,70.10
2018-05-05T08:17:36.366Z,66.00
2018-05-05T08:20:02.585Z,67.80
2018-05-05T08:22:28.778Z,64.80
2018-05-05T08:24:55.735Z,65.50
2018-05-05T08:27:22.671Z,65.70
2018-05-05T08:29:49.635Z,63.20
2018-05-05T08:32:15.830Z,63.10
2018-05-05T08:34:42.039Z,63.00
2018-05-05T08:37:08.227Z,63.00
2018-05-05T08:39:34.438Z,60.50
2018-05-05T08:42:01.379Z,59.10
2018-05-05T08:44:28.399Z,58.60
2018-05-05T08:46:54.619Z,58.60
2018-05-05T08:49:20.854Z,59.50
2018-05-05T08:51:47.047Z,59.10
2018-05-05T08:54:13.271Z,55.50
2018-05-05T08:56:39.454Z,57.90
2018-05-05T08:59:05.670Z,58.90
2018-05-05T09:01:31.871Z,57.30
2018-05-05T09:03:58.090Z,57.50
2018-05-05T09:06:24.303Z,57.50
2018-05-05T09:08:50.518Z,56.70
2018-05-05T09:11:17.450Z,53.80
2018-05-05T09:13:44.433Z,52.50
2018-05-05T09:16:10.647Z,52.30
2018-05-05T09:18:36.838Z,54.90
2018-05-05T09:21:03.102Z,55.40
2018-05-05T09:23:30.018Z,53.50
2018-05-05T09:25:56.234Z,53.40
2018-05-05T09:28:22.418Z,51.60
2018-05-05T09:30:48.645Z,52.50
2018-05-05T09:33:15.097Z,51.70
2018-05-05T09:35:41.322Z,51.10
2018-05-05T09:38:07.506Z,50.80
2018-05-05T09:40:34.462Z,52.30
2018-05-05T09:43:01.402Z,51.80
2018-05-05T09:45:27.655Z,51.90
2018-05-05T09:47:56.177Z,52.70
2018-05-05T09:50:22.391Z,52.90
2018-05-05T09:52:48.603Z,51.70
2018-05-05T09:55:14.887Z,53.60
2018-05-05T09:57:41.074Z,53.90
2018-05-05T10:00:07.298Z,51.70
2018-05-05T10:02:33.496Z,53.20
2018-05-05T10:05:00.463Z,50.50
2018-05-05T10:07:26.651Z,50.50
2018-05-05T10:09:52.862Z,51.30
2018-05-05T10:12:19.055Z,50.00
2018-05-05T10:14:45.275Z,48.80
2018-05-05T10:17:11.494Z,50.40
2018-05-05T10:19:37.686Z,50.70
2018-05-05T10:22:03.971Z,50.90
2018-05-05T10:24:30.155Z,53.10
2018-05-05T10:26:56.372Z,48.80
2018-05-05T10:29:22.560Z,50.90
2018-05-05T10:31:48.866Z,50.80
2018-05-05T10:34:15.072Z,51.20
2018-05-05T10:36:41.299Z,52.20
2018-05-05T10:39:07.491Z,51.90
2018-05-05T10:41:33.729Z,50.00
2018-05-05T10:43:59.935Z,50.60
2018-05-05T10:46:26.230Z,49.50
2018-05-05T10:48:53.176Z,50.30
2018-05-05T10:51:20.218Z,49.40
2018-05-05T10:53:46.387Z,49.40
2018-05-05T10:56:12.660Z,49.20
2018-05-05T10:58:38.924Z,50.20
2018-05-05T11:01:05.170Z,48.50
2018-05-05T11:03:31.367Z,50.50
2018-05-05T11:05:58.841Z,48.80
2018-05-05T11:08:25.442Z,48.70
2018-05-05T11:10:51.978Z,48.60
2018-05-05T11:13:18.207Z,49.40
2018-05-05T11:15:44.470Z,49.90
2018-05-05T11:18:11.941Z,49.20
2018-05-05T11:20:38.204Z,49.20
2018-05-05T11:23:04.507Z,47.90
2018-05-05T11:25:30.703Z,46.70
2018-05-05T11:27:56.927Z,46.20
2018-05-05T11:30:23.903Z,45.60
2018-05-05T11:32:50.134Z,45.50
2018-05-05T11:35:16.589Z,47.00
2018-05-05T11:37:42.832Z,46.00
2018-05-05T11:40:09.030Z,46.40
2018-05-05T11:42:35.255Z,46.30
2018-05-05T11:45:01.461Z,46.60
2018-05-05T11:47:28.428Z,46.30
2018-05-05T11:49:54.623Z,46.20
2018-05-05T11:52:20.845Z,46.80
2018-05-05T11:54:47.047Z,46.10
2018-05-05T11:57:13.273Z,45.00
2018-05-05T11:59:39.473Z,43.40
2018-05-05T12:02:05.755Z,44.70
2018-05-05T12:04:31.961Z,44.30
2018-05-05T12:06:58.182Z,46.10
2018-05-05T12:09:24.382Z,45.10
2018-05-05T12:11:50.611Z,44.40
2018-05-05T12:14:17.579Z,44.60
2018-05-05T12:16:43.812Z,44.70
2018-05-05T12:19:10.055Z,45.50
2018-05-05T12:21:36.275Z,45.40
2018-05-05T12:24:02.507Z,44.70
2018-05-05T12:26:28.703Z,45.30
2018-05-05T12:28:54.931Z,45.20
2018-05-05T12:31:21.168Z,44.80
2018-05-05T12:33:47.367Z,44.00
2018-05-05T12:36:14.408Z,43.20
2018-05-05T12:38:41.353Z,45.10
2018-05-05T12:41:07.595Z,45.00
2018-05-05T12:43:34.535Z,44.30
2018-05-05T12:46:00.758Z,44.30
2018-05-05T12:48:27.706Z,44.30
2018-05-05T12:50:53.936Z,44.20
2018-05-05T12:53:20.138Z,45.10
2018-05-05T12:55:46.368Z,43.80
2018-05-05T12:58:12.573Z,43.60
2018-05-05T13:00:38.807Z,42.30
2018-05-05T13:03:05.019Z,42.80
2018-05-05T13:05:31.496Z,42.10
2018-05-05T13:07:57.709Z,42.00
2018-05-05T13:10:23.910Z,42.80
2018-05-05T13:12:50.157Z,41.70
2018-05-05T13:15:16.355Z,42.80
2018-05-05T13:17:43.314Z,42.00
2018-05-05T13:20:09.511Z,42.10
2018-05-05T13:22:36.488Z,43.30
2018-05-05T13:25:02.703Z,42.90
2018-05-05T13:27:29.666Z,44.10
2018-05-05T13:29:55.862Z,44.10
2018-05-05T13:32:22.830Z,46.10
2018-05-05T13:34:49.035Z,46.10
2018-05-05T13:37:16.019Z,45.10
2018-05-05T13:39:42.216Z,45.10
2018-05-05T13:42:09.192Z,48.20
2018-05-05T13:44:35.403Z,48.20
2018-05-05T13:47:02.351Z,49.90
2018-05-05T13:49:28.583Z,49.40
2018-05-05T13:51:54.964Z,49.30
2018-05-05T13:54:21.175Z,49.90
2018-05-05T13:56:47.374Z,49.10
2018-05-05T13:59:13.606Z,48.50
2018-05-05T14:01:39.847Z,49.20
2018-05-05T14:04:06.046Z,49.40
2018-05-05T14:06:33.000Z,47.90
2018-05-05T14:08:59.230Z,47.90
2018-05-05T14:11:26.187Z,48.40
2018-05-05T14:13:52.415Z,48.40
2018-05-05T14:16:18.607Z,46.00
2018-05-05T14:18:44.822Z,47.10
2018-05-05T14:21:11.006Z,45.70
2018-05-05T14:23:37.219Z,45.60
2018-05-05T14:26:04.155Z,44.30
2018-05-05T14:28:31.114Z,43.90
2018-05-05T14:30:58.063Z,45.00
2018-05-05T14:33:24.278Z,45.00
2018-05-05T14:35:51.274Z,46.30
2018-05-05T14:38:17.495Z,46.30
2018-05-05T14:40:43.691Z,45.60
2018-05-05T14:43:10.656Z,45.00
2018-05-05T14:45:36.851Z,45.00
2018-05-05T14:48:03.811Z,46.30
2018-05-05T14:50:30.752Z,47.00
2018-05-05T14:52:57.712Z,45.00
2018-05-05T14:55:23.908Z,45.00
2018-05-05T14:57:50.181Z,45.00
2018-05-05T15:00:16.371Z,46.10
2018-05-05T15:02:42.823Z,45.90
2018-05-05T15:05:09.774Z,45.00
2018-05-05T15:07:35.991Z,44.90
2018-05-05T15:10:02.965Z,45.70
2018-05-05T15:12:29.207Z,45.50
2018-05-05T15:14:55.445Z,46.00
2018-05-05T15:17:21.662Z,44.60
2018-05-05T15:19:47.859Z,44.50
2018-05-05T15:22:14.812Z,46.30
2018-05-05T15:24:41.752Z,42.40
2018-05-05T15:27:08.711Z,44.40
2018-05-05T15:29:34.906Z,44.30
2018-05-05T15:32:01.136Z,44.50
2018-05-05T15:34:27.322Z,43.80
2018-05-05T15:36:53.515Z,44.40
2018-05-05T15:39:20.466Z,45.40
2018-05-05T15:41:46.658Z,45.40
2018-05-05T15:44:13.615Z,46.20
2018-05-05T15:46:40.555Z,46.70
2018-05-05T15:49:06.766Z,46.00
2018-05-05T15:51:32.975Z,46.60
2018-05-05T15:53:59.219Z,46.70
2018-05-05T15:56:25.418Z,47.40
2018-05-05T15:58:51.630Z,47.00
2018-05-05T16:01:17.818Z,47.50
2018-05-05T16:03:44.032Z,47.50
2018-05-05T16:06:10.223Z,48.00
2018-05-05T16:08:36.438Z,48.70
2018-05-05T16:11:03.377Z,50.10
2018-05-05T16:13:37.451Z,49.20
2018-05-05T16:16:03.639Z,49.10
2018-05-05T16:18:29.850Z,49.00
2018-05-05T16:20:56.783Z,49.10
2018-05-05T16:23:23.740Z,49.90
2018-05-05T16:25:50.675Z,50.00
2018-05-05T16:28:16.900Z,50.00
2018-05-05T16:30:43.125Z,50.10
2018-05-05T16:33:09.339Z,50.50
2018-05-05T16:35:35.551Z,50.60
2018-05-05T16:38:01.771Z,50.30
2018-05-05T16:40:27.958Z,51.60
2018-05-05T16:42:54.919Z,51.60
2018-05-05T16:45:21.126Z,51.60
2018-05-05T16:47:48.088Z,52.90
2018-05-05T16:50:14.288Z,52.90
2018-05-05T16:52:40.498Z,52.50
2018-05-05T16:55:06.696Z,52.30
2018-05-05T16:57:33.006Z,51.00
2018-05-05T16:59:59.220Z,51.00
2018-05-05T17:02:26.179Z,51.60
2018-05-05T17:04:53.113Z,51.90
2018-05-05T17:07:20.331Z,51.80
2018-05-05T17:09:46.523Z,51.80
2018-05-05T17:12:12.743Z,51.90
2018-05-05T17:14:38.958Z,51.50
2018-05-05T17:17:05.924Z,50.90
2018-05-05T17:19:32.138Z,50.80
2018-05-05T17:21:59.067Z,51.70
2018-05-05T17:24:26.042Z,53.00
2018-05-05T17:26:52.270Z,52.90
2018-05-05T17:29:18.488Z,53.00
2018-05-05T17:31:45.418Z,50.80
2018-05-05T17:34:12.375Z,51.40
2018-05-05T17:36:39.322Z,50.30
2018-05-05T17:39:06.286Z,49.80
2018-05-05T17:41:32.478Z,49.80
2018-05-05T17:43:59.448Z,51.00
2018-05-05T17:46:25.656Z,50.90
2018-05-05T17:48:52.635Z,51.00
2018-05-05T17:51:18.867Z,50.90
2018-05-05T17:53:45.070Z,51.00
2018-05-05T17:56:12.035Z,51.50
2018-05-05T17:58:38.239Z,51.50
2018-05-05T18:01:05.205Z,52.10
2018-05-05T18:03:31.433Z,52.10
2018-05-05T18:05:57.630Z,51.80
2018-05-05T18:08:24.571Z,52.70
2018-05-05T18:10:50.837Z,52.70
2018-05-05T18:13:17.067Z,52.60
2018-05-05T18:15:43.330Z,52.90
2018-05-05T18:18:09.536Z,52.80
2018-05-05T18:20:35.764Z,52.90
2018-05-05T18:23:01.963Z,52.90
2018-05-05T18:25:28.935Z,53.70
2018-05-05T18:27:55.135Z,53.60
2018-05-05T18:30:22.107Z,54.50
2018-05-05T18:32:48.303Z,54.50
2018-05-05T18:35:14.639Z,54.40
2018-05-05T18:37:45.377Z,54.40
2018-05-05T18:40:11.638Z,54.90
2018-05-05T18:42:37.843Z,55.00
2018-05-05T18:45:05.213Z,55.50
2018-05-05T18:47:31.383Z,55.50
2018-05-05T18:49:57.627Z,56.00
2018-05-05T18:52:23.839Z,56.20
2018-05-05T18:54:50.072Z,56.30
2018-05-05T18:57:16.325Z,56.50
2018-05-05T18:59:42.530Z,56.40
2018-05-05T19:02:08.778Z,57.00
2018-05-05T19:04:34.983Z,57.20
2018-05-05T19:07:01.206Z,57.30
2018-05-05T19:09:27.409Z,57.30
2018-05-05T19:11:53.684Z,57.30
2018-05-05T19:14:19.882Z,57.00
2018-05-05T19:16:46.090Z,57.10
2018-05-05T19:19:12.371Z,57.50
2018-05-05T19:21:38.582Z,57.20
2018-05-05T19:24:04.774Z,57.50
2018-05-05T19:26:31.726Z,57.30
2018-05-05T19:28:57.918Z,57.20
2018-05-05T19:31:24.129Z,57.80
2018-05-05T19:33:50.315Z,58.10
2018-05-05T19:36:16.550Z,58.00
2018-05-05T19:38:42.738Z,58.20
2018-05-05T19:41:08.950Z,58.70
2018-05-05T19:43:35.148Z,57.90
2018-05-05T19:46:02.326Z,58.60
2018-05-05T19:48:28.506Z,58.50
2018-05-05T19:50:57.599Z,59.00
2018-05-05T19:53:23.789Z,59.10
2018-05-05T19:55:50.008Z,59.80
2018-05-05T19:58:16.200Z,59.80
2018-05-05T20:00:42.455Z,60.50
2018-05-05T20:03:08.671Z,60.90
2018-05-05T20:05:34.907Z,61.00
2018-05-05T20:08:01.122Z,61.60
2018-05-05T20:10:27.372Z,61.60
2018-05-05T20:12:53.675Z,61.70
2018-05-05T20:15:19.955Z,61.90
2018-05-05T20:17:46.150Z,62.30
2018-05-05T20:20:12.370Z,63.20
2018-05-05T20:22:45.738Z,63.10
2018-05-05T20:25:12.771Z,63.70
2018-05-05T20:27:39.708Z,64.30
2018-05-05T20:30:05.923Z,63.60
2018-05-05T20:32:32.114Z,63.90
2018-05-05T20:34:58.337Z,64.30
2018-05-05T20:37:24.538Z,64.30
2018-05-05T20:39:51.504Z,64.80
2018-05-05T20:42:17.759Z,64.80
2018-05-05T20:44:43.971Z,65.00
2018-05-05T20:47:10.177Z,65.30
2018-05-05T20:49:36.422Z,65.50
2018-05-05T20:52:02.611Z,66.20
2018-05-05T20:54:28.831Z,66.80
2018-05-05T20:56:55.104Z,67.30
2018-05-05T20:59:21.488Z,67.50
2018-05-05T21:01:47.682Z,68.30
2018-05-05T21:04:13.890Z,68.80
2018-05-05T21:06:40.871Z,69.50
2018-05-05T21:09:07.075Z,69.50
2018-05-05T21:11:33.355Z,69.10
2018-05-05T21:13:59.588Z,69.50
2018-05-05T21:16:25.810Z,69.60
2018-05-05T21:18:52.011Z,69.80
2018-05-05T21:21:18.234Z,70.30
2018-05-05T21:23:44.430Z,70.60
2018-05-05T21:26:11.398Z,71.60
2018-05-05T21:28:37.598Z,71.60
2018-05-05T21:31:04.587Z,72.70
2018-05-05T21:33:30.841Z,72.60
2018-05-05T21:35:57.030Z,73.10
2018-05-05T21:38:23.259Z,73.10
2018-05-05T21:40:49.486Z,73.50
2018-05-05T21:43:15.691Z,73.60
2018-05-05T21:45:42.707Z,74.50
2018-05-05T21:48:08.913Z,74.40
2018-05-05T21:50:35.130Z,74.40
2018-05-05T21:53:01.327Z,76.00
2018-05-05T21:55:28.314Z,76.80
2018-05-05T21:57:54.531Z,76.70
2018-05-05T22:00:20.747Z,77.00
2018-05-05T22:02:46.956Z,77.40
2018-05-05T22:05:13.947Z,78.20
2018-05-05T22:07:40.159Z,77.90
2018-05-05T22:10:06.395Z,78.20
2018-05-05T22:12:32.621Z,78.90
2018-05-05T22:14:58.955Z,79.00
2018-05-05T22:17:25.398Z,78.90
2018-05-05T22:19:51.617Z,79.20
2018-05-05T22:22:17.839Z,79.20
2018-05-05T22:24:44.034Z,79.80
2018-05-05T22:27:10.246Z,79.90
2018-05-05T22:29:36.443Z,80.10
2018-05-05T22:32:02.675Z,80.40
2018-05-05T22:34:28.931Z,81.10
2018-05-05T22:36:55.151Z,81.00
2018-05-05T22:39:21.343Z,81.80
2018-05-05T22:41:47.819Z,82.20
2018-05-05T22:44:14.024Z,82.50
2018-05-05T22:46:40.246Z,82.80
2018-05-05T22:49:06.566Z,83.10
2018-05-05T22:51:32.777Z,83.30
2018-05-05T22:53:59.962Z,84.40
2018-05-05T22:56:26.215Z,84.40
2018-05-05T22:58:52.406Z,84.60
2018-05-05T23:01:18.619Z,85.20
2018-05-05T23:03:45.555Z,86.30
2018-05-05T23:06:12.515Z,86.60
2018-05-05T23:08:38.706Z,86.60
2018-05-05T23:11:04.919Z,87.20
2018-05-05T23:13:31.139Z,87.40
2018-05-05T23:15:57.363Z,88.00
2018-05-05T23:18:23.581Z,88.10
2018-05-05T23:20:49.783Z,88.40
2018-05-05T23:23:16.714Z,88.90
2018-05-05T23:25:43.670Z,89.90
2018-05-05T23:28:10.598Z,90.00
2018-05-05T23:30:36.814Z,90.00
2018-05-05T23:33:03.011Z,90.20
2018-05-05T23:35:29.239Z,90.50
2018-05-05T23:37:55.422Z,90.70
2018-05-05T23:40:22.383Z,91.70
2018-05-05T23:42:49.310Z,91.60
2018-05-05T23:45:16.271Z,92.30
2018-05-05T23:47:43.202Z,92.40
2018-05-05T23:50:09.430Z,92.40
2018-05-05T23:52:35.623Z,92.60
2018-05-05T23:55:01.843Z,93.20
2018-05-05T23:57:28.034Z,93.30
2018-05-05T23:59:54.998Z,94.10
